createdAt,value
2018-11-26T00:01:35.320Z,3.09
2018-11-26T00:04:07.003Z,3.07
2018-11-26T00:06:36.365Z,3.06
2018-11-26T00:09:06.887Z,3.06
2018-11-26T00:11:37.424Z,3.10
2018-11-26T00:14:06.975Z,3.11
2018-11-26T00:16:36.339Z,3.04
2018-11-26T00:19:05.950Z,3.04
2018-11-26T00:21:35.408Z,3.03
2018-11-26T00:24:04.810Z,3.02
2018-11-26T00:26:34.180Z,2.96
2018-11-26T00:29:03.493Z,3.07
2018-11-26T00:31:32.815Z,3.09
2018-11-26T00:34:02.219Z,3.07
2018-11-26T00:36:31.559Z,3.09
2018-11-26T00:39:00.902Z,3.15
2018-11-26T00:41:30.291Z,3.20
2018-11-26T00:43:59.689Z,3.17
2018-11-26T00:46:29.065Z,3.13
2018-11-26T00:48:58.457Z,3.11
2018-11-26T00:51:27.779Z,3.17
2018-11-26T00:53:57.126Z,3.17
2018-11-26T00:56:26.528Z,3.14
2018-11-26T00:58:55.874Z,3.10
2018-11-26T01:01:25.243Z,3.15
2018-11-26T01:03:54.571Z,3.18
2018-11-26T01:06:23.931Z,3.21
2018-11-26T01:08:53.311Z,3.16
2018-11-26T01:11:22.680Z,3.21
2018-11-26T01:13:52.376Z,3.33
2018-11-26T01:16:21.917Z,3.19
2018-11-26T01:18:51.241Z,3.13
2018-11-26T01:21:20.662Z,3.12
2018-11-26T01:23:49.990Z,3.13
2018-11-26T01:26:20.588Z,3.06
2018-11-26T01:28:49.891Z,3.01
2018-11-26T01:31:19.230Z,2.97
2018-11-26T01:33:48.531Z,2.99
2018-11-26T01:36:17.841Z,3.10
2018-11-26T01:38:47.198Z,3.09
2018-11-26T01:41:16.504Z,3.06
2018-11-26T01:43:45.867Z,3.08
2018-11-26T01:46:15.288Z,3.04
2018-11-26T01:48:44.610Z,2.98
2018-11-26T01:51:13.939Z,2.98
2018-11-26T01:53:43.321Z,2.98
2018-11-26T01:56:12.656Z,3.02
2018-11-26T01:58:42.042Z,3.02
2018-11-26T02:01:11.365Z,3.07
2018-11-26T02:03:40.725Z,3.08
2018-11-26T02:06:10.405Z,3.04
2018-11-26T02:08:39.753Z,3.03
2018-11-26T02:11:09.110Z,3.02
2018-11-26T02:13:38.444Z,3.08
2018-11-26T02:16:07.796Z,3.13
2018-11-26T02:18:37.182Z,3.10
2018-11-26T02:21:06.574Z,3.04
2018-11-26T02:23:35.907Z,3.05
2018-11-26T02:26:05.394Z,3.11
2018-11-26T02:28:34.726Z,3.16
2018-11-26T02:31:04.085Z,3.18
2018-11-26T02:33:33.398Z,3.17
2018-11-26T02:36:02.775Z,3.19
2018-11-26T02:38:32.195Z,3.12
2018-11-26T02:41:01.550Z,3.09
2018-11-26T02:43:30.924Z,3.10
2018-11-26T02:46:00.310Z,3.15
2018-11-26T02:48:29.923Z,3.20
2018-11-26T02:50:59.286Z,3.18
2018-11-26T02:53:28.643Z,3.17
2018-11-26T02:55:58.005Z,3.16
2018-11-26T02:58:27.393Z,3.14
2018-11-26T03:00:56.764Z,3.08
2018-11-26T03:03:26.096Z,3.15
2018-11-26T03:05:55.455Z,3.16
2018-11-26T03:08:24.840Z,3.17
2018-11-26T03:10:54.212Z,3.16
2018-11-26T03:13:23.647Z,3.14
2018-11-26T03:15:52.966Z,3.17
2018-11-26T03:18:22.330Z,3.18
2018-11-26T03:20:51.669Z,3.19
2018-11-26T03:23:21.030Z,3.15
2018-11-26T03:25:50.442Z,3.15
2018-11-26T03:28:19.791Z,3.07
2018-11-26T03:30:49.143Z,3.02
2018-11-26T03:33:18.525Z,3.07
2018-11-26T03:35:47.882Z,3.09
2018-11-26T03:38:28.108Z,3.11
2018-11-26T03:40:57.468Z,2.97
2018-11-26T03:43:26.852Z,3.00
2018-11-26T03:45:56.255Z,2.91
2018-11-26T03:48:25.634Z,2.85
2018-11-26T03:50:54.973Z,2.88
2018-11-26T03:53:24.300Z,2.80
2018-11-26T03:55:54.328Z,2.76
2018-11-26T03:58:23.756Z,2.73
2018-11-26T04:00:54.057Z,2.79
2018-11-26T04:03:23.392Z,2.77
2018-11-26T04:05:52.713Z,2.79
2018-11-26T04:08:22.038Z,2.83
2018-11-26T04:10:52.041Z,2.83
2018-11-26T04:13:21.416Z,2.85
2018-11-26T04:15:50.770Z,2.86
2018-11-26T04:18:20.118Z,2.78
2018-11-26T04:20:49.513Z,2.85
2018-11-26T04:23:20.115Z,2.89
2018-11-26T04:25:54.673Z,2.91
2018-11-26T04:28:24.019Z,2.88
2018-11-26T04:30:53.432Z,2.89
2018-11-26T04:33:22.804Z,2.86
2018-11-26T04:35:52.130Z,2.90
2018-11-26T04:38:21.700Z,2.93
2018-11-26T04:40:51.287Z,2.94
2018-11-26T04:43:20.635Z,2.87
2018-11-26T04:45:50.277Z,2.75
2018-11-26T04:48:19.589Z,2.78
2018-11-26T04:50:48.919Z,2.81
2018-11-26T04:53:18.299Z,2.69
2018-11-26T04:55:47.676Z,2.56
2018-11-26T04:58:17.022Z,2.60
2018-11-26T05:00:46.374Z,2.55
2018-11-26T05:03:15.724Z,2.52
2018-11-26T05:05:45.091Z,2.50
2018-11-26T05:08:14.411Z,2.50
2018-11-26T05:10:43.726Z,2.61
2018-11-26T05:13:13.114Z,2.59
2018-11-26T05:15:42.482Z,2.68
2018-11-26T05:18:11.843Z,2.60
2018-11-26T05:20:41.260Z,2.61
2018-11-26T05:23:10.601Z,2.67
2018-11-26T05:25:39.982Z,2.60
2018-11-26T05:28:09.353Z,2.57
2018-11-26T05:30:38.750Z,2.54
2018-11-26T05:33:08.095Z,2.60
2018-11-26T05:35:37.463Z,2.66
2018-11-26T05:38:06.811Z,2.69
2018-11-26T05:40:36.299Z,2.70
2018-11-26T05:43:06.060Z,2.62
2018-11-26T05:45:35.400Z,2.62
2018-11-26T05:48:04.807Z,2.65
2018-11-26T05:50:34.150Z,2.69
2018-11-26T05:53:03.474Z,2.66
2018-11-26T05:55:32.823Z,2.60
2018-11-26T05:58:02.170Z,2.59
2018-11-26T06:00:33.337Z,2.58
2018-11-26T06:03:02.872Z,2.57
2018-11-26T06:05:32.612Z,2.63
2018-11-26T06:08:01.938Z,2.68
2018-11-26T06:10:31.482Z,2.68
2018-11-26T06:13:00.818Z,2.66
2018-11-26T06:15:30.161Z,2.61
2018-11-26T06:18:00.874Z,2.58
2018-11-26T06:20:30.183Z,2.62
2018-11-26T06:22:59.546Z,2.64
2018-11-26T06:25:28.926Z,2.69
2018-11-26T06:27:58.258Z,2.63
2018-11-26T06:30:28.831Z,2.69
2018-11-26T06:32:58.159Z,2.71
2018-11-26T06:35:27.498Z,2.73
2018-11-26T06:37:56.843Z,2.73
2018-11-26T06:40:26.205Z,2.71
2018-11-26T06:42:55.544Z,2.68
2018-11-26T06:45:24.863Z,2.75
2018-11-26T06:47:54.243Z,2.78
2018-11-26T06:50:23.674Z,2.66
2018-11-26T06:52:53.002Z,2.73
2018-11-26T06:55:22.871Z,2.78
2018-11-26T06:57:52.207Z,2.80
2018-11-26T07:00:21.855Z,2.80
2018-11-26T07:02:51.211Z,2.76
2018-11-26T07:05:21.834Z,2.85
2018-11-26T07:07:51.519Z,2.90
2018-11-26T07:10:21.630Z,3.01
2018-11-26T07:12:51.029Z,2.92
2018-11-26T07:15:21.628Z,2.93
2018-11-26T07:17:51.315Z,2.79
2018-11-26T07:20:21.742Z,2.83
2018-11-26T07:22:51.094Z,2.85
2018-11-26T07:25:21.493Z,2.89
2018-11-26T07:27:54.500Z,2.97
2018-11-26T07:30:26.598Z,3.07
2018-11-26T07:32:55.940Z,3.07
2018-11-26T07:35:26.499Z,2.94
2018-11-26T07:37:55.921Z,2.88
2018-11-26T07:40:25.230Z,2.82
2018-11-26T07:43:04.572Z,2.80
2018-11-26T07:45:33.904Z,2.87
2018-11-26T07:48:03.228Z,2.92
2018-11-26T07:50:32.543Z,2.93
2018-11-26T07:53:01.902Z,2.96
2018-11-26T07:55:31.248Z,3.02
2018-11-26T07:58:00.614Z,3.04
2018-11-26T08:00:30.011Z,3.06
2018-11-26T08:02:59.343Z,3.02
2018-11-26T08:05:28.720Z,2.98
2018-11-26T08:07:58.071Z,2.96
2018-11-26T08:10:27.674Z,2.97
2018-11-26T08:12:57.019Z,3.00
2018-11-26T08:15:28.760Z,3.07
2018-11-26T08:18:00.910Z,3.02
2018-11-26T08:20:30.275Z,3.03
2018-11-26T08:22:59.592Z,3.09
2018-11-26T08:25:28.948Z,3.04
2018-11-26T08:27:58.290Z,2.94
2018-11-26T08:30:28.159Z,2.91
2018-11-26T08:33:00.943Z,2.90
2018-11-26T08:35:30.965Z,2.83
2018-11-26T08:38:05.380Z,2.75
2018-11-26T08:40:39.799Z,2.81
2018-11-26T08:43:14.386Z,2.87
2018-11-26T08:45:52.463Z,3.00
2018-11-26T08:48:29.834Z,3.08
2018-11-26T08:51:01.497Z,3.01
2018-11-26T08:53:31.227Z,3.16
2018-11-26T08:56:00.578Z,3.18
2018-11-26T08:58:30.595Z,3.02
2018-11-26T09:01:03.979Z,3.13
2018-11-26T09:03:36.597Z,3.11
2018-11-26T09:06:06.258Z,3.08
2018-11-26T09:08:37.774Z,3.03
2018-11-26T09:11:09.550Z,2.94
2018-11-26T09:13:38.902Z,2.99
2018-11-26T09:16:08.219Z,2.92
2018-11-26T09:18:44.192Z,3.05
2018-11-26T09:21:13.507Z,3.04
2018-11-26T09:23:42.846Z,3.00
2018-11-26T09:26:12.196Z,2.89
2018-11-26T09:28:41.633Z,3.08
2018-11-26T09:31:11.619Z,3.03
2018-11-26T09:33:40.974Z,3.01
2018-11-26T09:36:10.319Z,3.10
2018-11-26T09:38:39.738Z,3.09
2018-11-26T09:41:09.068Z,3.02
2018-11-26T09:43:39.685Z,3.06
2018-11-26T09:46:09.044Z,3.05
2018-11-26T09:48:38.358Z,3.02
2018-11-26T09:51:14.106Z,3.10
2018-11-26T09:53:37.048Z,3.26
2018-11-26T09:56:06.439Z,3.22
2018-11-26T09:58:35.750Z,3.26
2018-11-26T10:01:05.994Z,3.26
2018-11-26T10:03:35.337Z,3.35
2018-11-26T10:06:05.095Z,3.52
2018-11-26T10:08:35.132Z,3.35
2018-11-26T10:11:04.483Z,3.44
2018-11-26T10:13:33.822Z,3.49
2018-11-26T10:16:03.138Z,3.42
2018-11-26T10:18:32.419Z,3.18
2018-11-26T10:25:59.708Z,3.16
2018-11-26T10:28:29.084Z,3.27
2018-11-26T10:30:58.429Z,3.28
2018-11-26T10:33:27.767Z,3.41
2018-11-26T10:35:57.135Z,3.49
2018-11-26T10:38:26.546Z,3.32
2018-11-26T10:40:55.928Z,3.42
2018-11-26T10:43:25.867Z,3.59
2018-11-26T10:45:55.218Z,3.77
2018-11-26T10:48:24.742Z,3.57
2018-11-26T10:50:54.152Z,3.43
2018-11-26T10:53:23.496Z,3.33
2018-11-26T10:55:53.830Z,3.29
2018-11-26T10:58:23.214Z,3.28
2018-11-26T11:00:58.497Z,3.34
2018-11-26T11:03:27.856Z,3.50
2018-11-26T11:05:57.199Z,3.62
2018-11-26T11:08:26.551Z,3.60
2018-11-26T11:10:55.903Z,3.76
2018-11-26T11:13:25.298Z,3.91
2018-11-26T11:15:54.666Z,4.13
2018-11-26T11:18:24.067Z,4.21
2018-11-26T11:20:53.446Z,4.22
2018-11-26T11:23:22.796Z,4.20
2018-11-26T11:25:52.123Z,4.22
2018-11-26T11:28:21.432Z,3.86
2018-11-26T11:30:50.773Z,3.72
2018-11-26T11:35:48.525Z,3.28
2018-11-26T11:38:17.858Z,3.47
2018-11-26T11:40:47.192Z,3.55
2018-11-26T11:43:16.510Z,3.50
2018-11-26T11:45:45.829Z,3.31
2018-11-26T11:48:15.149Z,3.29
2018-11-26T11:50:44.489Z,3.24
2018-11-26T11:53:13.817Z,3.48
2018-11-26T11:55:43.143Z,3.43
2018-11-26T11:58:12.584Z,3.38
2018-11-26T12:00:43.364Z,3.45
2018-11-26T12:03:16.530Z,3.35
2018-11-26T12:05:45.908Z,3.37
2018-11-26T12:08:15.572Z,3.51
2018-11-26T12:10:44.908Z,3.49
2018-11-26T12:13:16.101Z,3.48
2018-11-26T12:15:52.952Z,3.46
2018-11-26T12:18:22.556Z,3.51
2018-11-26T12:20:51.942Z,3.66
2018-11-26T12:23:21.255Z,3.67
2018-11-26T12:25:50.619Z,3.50
2018-11-26T12:28:19.982Z,3.49
2018-11-26T12:30:50.565Z,3.36
2018-11-26T12:33:19.922Z,3.32
2018-11-26T12:35:49.241Z,3.22
2018-11-26T12:38:18.594Z,3.27
2018-11-26T12:40:47.991Z,3.50
2018-11-26T12:43:17.331Z,3.54
2018-11-26T12:45:46.763Z,3.46
2018-11-26T12:48:16.088Z,3.28
2018-11-26T12:50:45.422Z,3.07
2018-11-26T12:53:14.773Z,3.15
2018-11-26T12:55:44.101Z,3.44
2018-11-26T12:58:13.456Z,3.46
2018-11-26T13:00:42.830Z,3.53
2018-11-26T13:03:14.206Z,3.56
2018-11-26T13:05:43.587Z,3.40
2018-11-26T13:08:12.920Z,3.11
2018-11-26T13:10:42.301Z,3.11
2018-11-26T13:13:11.954Z,2.96
2018-11-26T13:15:41.282Z,2.82
2018-11-26T13:18:10.644Z,2.76
2018-11-26T13:20:41.004Z,2.79
2018-11-26T13:23:10.856Z,2.73
2018-11-26T13:25:42.095Z,2.67
2018-11-26T13:28:10.668Z,2.60
2018-11-26T13:30:44.336Z,2.51
2018-11-26T13:33:17.417Z,2.47
2018-11-26T13:35:48.008Z,2.49
2018-11-26T13:38:17.339Z,2.41
2018-11-26T13:40:46.721Z,2.28
2018-11-26T13:43:18.555Z,2.36
2018-11-26T13:45:49.945Z,2.45
2018-11-26T13:48:20.272Z,2.44
2018-11-26T13:50:55.499Z,2.48
2018-11-26T13:53:25.148Z,2.51
2018-11-26T13:55:54.208Z,2.60
2018-11-26T13:58:23.590Z,2.44
2018-11-26T14:00:52.922Z,2.36
2018-11-26T14:03:22.375Z,2.21
2018-11-26T14:05:52.570Z,2.10
2018-11-26T14:08:21.891Z,2.13
2018-11-26T14:10:51.240Z,2.00
2018-11-26T14:13:20.601Z,1.94
2018-11-26T14:15:50.346Z,1.94
2018-11-26T14:18:21.437Z,1.99
2018-11-26T14:20:50.780Z,1.87
2018-11-26T14:23:20.076Z,1.94
2018-11-26T14:25:49.420Z,1.83
2018-11-26T14:28:18.772Z,1.85
2018-11-26T14:30:48.778Z,1.83
2018-11-26T14:33:18.139Z,1.76
2018-11-26T14:35:47.456Z,1.77
2018-11-26T14:38:16.853Z,1.83
2018-11-26T14:40:50.157Z,1.76
2018-11-26T14:43:19.501Z,1.75
2018-11-26T14:45:48.852Z,1.80
2018-11-26T14:48:18.180Z,1.72
2018-11-26T14:50:47.532Z,1.63
2018-11-26T14:53:17.904Z,1.72
2018-11-26T14:55:47.229Z,1.72
2018-11-26T14:58:16.560Z,1.68
2018-11-26T15:00:45.871Z,1.63
2018-11-26T15:03:15.200Z,1.61
2018-11-26T15:05:44.556Z,1.58
2018-11-26T15:08:13.928Z,1.49
2018-11-26T15:10:43.301Z,1.46
2018-11-26T15:13:12.690Z,1.44
2018-11-26T15:15:42.057Z,1.25
2018-11-26T15:18:11.462Z,1.16
2018-11-26T15:20:40.787Z,1.04
2018-11-26T15:23:10.113Z,1.01
2018-11-26T15:25:39.452Z,1.06
2018-11-26T15:28:11.845Z,1.04
2018-11-26T15:30:41.225Z,1.01
2018-11-26T15:33:10.604Z,0.99
2018-11-26T15:35:40.489Z,1.01
2018-11-26T15:38:09.993Z,0.97
2018-11-26T15:40:39.660Z,0.93
2018-11-26T15:43:08.803Z,0.93
2018-11-26T15:45:38.611Z,0.96
2018-11-26T15:48:11.139Z,0.97
2018-11-26T15:50:40.779Z,0.97
2018-11-26T15:53:10.690Z,0.94
2018-11-26T15:55:40.109Z,0.92
2018-11-26T15:58:10.279Z,0.90
2018-11-26T16:00:39.790Z,0.91
2018-11-26T16:03:09.327Z,0.87
2018-11-26T16:05:38.718Z,0.88
2018-11-26T16:08:10.360Z,0.86
2018-11-26T16:10:39.715Z,0.88
2018-11-26T16:13:10.728Z,0.89
2018-11-26T16:15:42.828Z,0.89
2018-11-26T16:18:16.588Z,0.88
2018-11-26T16:20:45.908Z,0.87
2018-11-26T16:23:15.269Z,0.85
2018-11-26T16:25:46.599Z,0.88
2018-11-26T16:28:23.009Z,0.89
2018-11-26T16:30:52.723Z,0.87
2018-11-26T16:33:22.097Z,0.88
2018-11-26T16:35:52.109Z,0.87
2018-11-26T16:38:21.452Z,0.83
2018-11-26T16:40:50.841Z,0.86
2018-11-26T16:43:20.221Z,0.89
2018-11-26T16:45:49.576Z,0.90
2018-11-26T16:48:19.957Z,0.88
2018-11-26T16:50:49.293Z,0.86
2018-11-26T16:53:19.456Z,0.87
2018-11-26T16:55:48.061Z,0.91
2018-11-26T16:58:17.545Z,0.90
2018-11-26T17:00:48.100Z,0.88
2018-11-26T17:03:17.459Z,0.82
2018-11-26T17:05:46.888Z,0.73
2018-11-26T17:08:16.697Z,0.78
2018-11-26T17:10:46.024Z,0.80
2018-11-26T17:13:23.356Z,0.84
2018-11-26T17:15:52.802Z,0.78
2018-11-26T17:18:22.391Z,0.86
2018-11-26T17:20:51.720Z,0.85
2018-11-26T17:23:21.062Z,0.85
2018-11-26T17:25:50.472Z,0.80
2018-11-26T17:28:21.044Z,0.79
2018-11-26T17:30:50.417Z,0.77
2018-11-26T17:33:19.862Z,0.80
2018-11-26T17:35:49.179Z,0.80
2018-11-26T17:38:18.516Z,0.83
2018-11-26T17:40:47.903Z,0.77
2018-11-26T17:43:17.251Z,0.83
2018-11-26T17:45:46.608Z,0.82
2018-11-26T17:48:15.989Z,0.81
2018-11-26T17:50:46.161Z,0.81
2018-11-26T17:53:20.886Z,0.82
2018-11-26T17:55:54.552Z,0.82
2018-11-26T17:58:27.529Z,0.82
2018-11-26T18:01:07.510Z,0.82
2018-11-26T18:03:36.861Z,0.82
2018-11-26T18:06:06.393Z,0.78
2018-11-26T18:08:35.746Z,0.78
2018-11-26T18:11:05.545Z,0.77
2018-11-26T18:13:34.889Z,0.78
2018-11-26T18:16:04.713Z,0.80
2018-11-26T18:18:34.075Z,0.78
2018-11-26T18:21:03.445Z,0.78
2018-11-26T18:23:32.812Z,0.72
2018-11-26T18:26:02.195Z,0.81
2018-11-26T18:28:33.121Z,0.80
2018-11-26T18:31:02.473Z,0.78
2018-11-26T18:33:31.787Z,0.74
2018-11-26T18:36:01.358Z,0.70
2018-11-26T18:38:30.672Z,0.75
2018-11-26T18:41:01.283Z,0.75
2018-11-26T18:43:30.658Z,0.81
2018-11-26T18:46:00.093Z,0.82
2018-11-26T18:48:29.452Z,0.82
2018-11-26T18:50:58.775Z,0.85
2018-11-26T18:53:28.096Z,0.81
2018-11-26T18:55:57.434Z,0.82
2018-11-26T18:58:26.813Z,0.81
2018-11-26T19:00:59.212Z,0.82
2018-11-26T19:03:28.537Z,0.82
2018-11-26T19:05:57.924Z,0.82
2018-11-26T19:08:27.316Z,0.82
2018-11-26T19:11:02.136Z,0.80
2018-11-26T19:13:38.015Z,0.79
2018-11-26T19:16:18.668Z,0.77
2018-11-26T19:18:48.123Z,0.75
2018-11-26T19:21:17.475Z,0.73
2018-11-26T19:23:46.901Z,0.74
2018-11-26T19:26:16.215Z,0.74
2018-11-26T19:28:45.580Z,0.72
2018-11-26T19:31:14.943Z,0.71
2018-11-26T19:33:44.360Z,0.69
2018-11-26T19:36:13.713Z,0.71
2018-11-26T19:38:43.137Z,0.73
2018-11-26T19:41:12.492Z,0.73
2018-11-26T19:43:41.836Z,0.71
2018-11-26T19:46:11.304Z,0.70
2018-11-26T19:48:40.635Z,0.65
2018-11-26T19:51:09.989Z,0.73
2018-11-26T19:53:39.345Z,0.70
2018-11-26T19:56:08.716Z,0.66
2018-11-26T19:58:38.088Z,0.65
2018-11-26T20:01:07.477Z,0.64
2018-11-26T20:03:40.608Z,0.60
2018-11-26T20:06:26.337Z,0.60
2018-11-26T20:09:00.423Z,0.62
2018-11-26T20:11:33.122Z,0.62
2018-11-26T20:13:59.438Z,0.68
2018-11-26T20:16:36.165Z,0.68
2018-11-26T20:19:06.022Z,0.69
2018-11-26T20:21:35.352Z,0.68
2018-11-26T20:24:04.767Z,0.69
2018-11-26T20:26:34.160Z,0.72
2018-11-26T20:29:03.565Z,0.76
2018-11-26T20:31:34.164Z,0.72
2018-11-26T20:34:03.555Z,0.78
2018-11-26T20:36:32.903Z,0.78
2018-11-26T20:39:02.255Z,0.75
2018-11-26T20:41:31.654Z,0.69
2018-11-26T20:44:00.959Z,0.69
2018-11-26T20:46:30.625Z,0.68
2018-11-26T20:49:00.006Z,0.70
2018-11-26T20:51:29.340Z,0.70
2018-11-26T20:54:02.781Z,0.69
2018-11-26T20:56:32.095Z,0.64
2018-11-26T20:59:01.465Z,0.62
2018-11-26T21:01:30.832Z,0.64
2018-11-26T21:04:00.231Z,0.67
2018-11-26T21:06:29.669Z,0.69
2018-11-26T21:08:59.118Z,0.72
2018-11-26T21:11:28.436Z,0.71
2018-11-26T21:13:57.789Z,0.77
2018-11-26T21:16:27.100Z,0.75
2018-11-26T21:18:56.472Z,0.76
2018-11-26T21:21:25.901Z,0.76
2018-11-26T21:23:55.266Z,0.77
2018-11-26T21:26:24.668Z,0.78
2018-11-26T21:28:54.076Z,0.78
2018-11-26T21:31:23.869Z,0.77
2018-11-26T21:33:52.860Z,0.77
2018-11-26T21:36:22.284Z,0.77
2018-11-26T21:38:51.679Z,0.80
2018-11-26T21:41:21.103Z,0.82
2018-11-26T21:43:50.520Z,0.81
2018-11-26T21:46:19.884Z,0.79
2018-11-26T21:48:49.228Z,0.88
2018-11-26T21:51:18.668Z,0.80
2018-11-26T21:53:48.183Z,0.80
2018-11-26T21:56:17.552Z,0.81
2018-11-26T21:58:46.924Z,0.82
2018-11-26T22:01:16.330Z,0.83
2018-11-26T22:03:45.695Z,0.83
2018-11-26T22:06:15.106Z,0.81
2018-11-26T22:08:44.446Z,0.83
2018-11-26T22:11:13.874Z,0.80
2018-11-26T22:13:43.221Z,0.85
2018-11-26T22:16:12.567Z,0.82
2018-11-26T22:18:41.966Z,0.92
2018-11-26T22:21:11.372Z,0.97
2018-11-26T22:23:40.762Z,0.95
2018-11-26T22:26:10.221Z,0.95
2018-11-26T22:28:39.574Z,0.96
2018-11-26T22:31:08.969Z,0.93
2018-11-26T22:33:38.304Z,0.91
2018-11-26T22:36:07.653Z,0.90
2018-11-26T22:38:37.015Z,0.91
2018-11-26T22:41:07.255Z,0.97
2018-11-26T22:43:36.660Z,0.96
2018-11-26T22:46:06.359Z,0.93
2018-11-26T22:48:35.777Z,0.87
2018-11-26T22:51:05.174Z,0.84
2018-11-26T22:53:34.564Z,0.81
2018-11-26T22:56:03.977Z,0.74
2018-11-26T22:58:33.317Z,0.85
2018-11-26T23:01:03.654Z,0.83
2018-11-26T23:03:32.287Z,0.80
2018-11-26T23:06:01.666Z,0.85
2018-11-26T23:08:31.043Z,0.87
2018-11-26T23:11:00.453Z,0.87
2018-11-26T23:13:29.832Z,0.89
2018-11-26T23:15:59.191Z,0.81
2018-11-26T23:18:29.578Z,0.82
2018-11-26T23:20:58.921Z,0.75
2018-11-26T23:23:28.292Z,0.80
2018-11-26T23:25:58.672Z,0.82
2018-11-26T23:28:28.036Z,0.78
2018-11-26T23:30:57.427Z,0.88
2018-11-26T23:33:26.817Z,0.88
2018-11-26T23:35:56.140Z,0.86
2018-11-26T23:38:26.752Z,0.88
2018-11-26T23:40:56.302Z,0.87
2018-11-26T23:43:25.697Z,0.85
2018-11-26T23:45:55.084Z,0.84
2018-11-26T23:48:24.806Z,0.86
2018-11-26T23:50:55.331Z,0.81
2018-11-26T23:53:24.712Z,0.83
2018-11-26T23:55:54.046Z,0.87
2018-11-26T23:58:23.405Z,0.96
